Time;durP1;ratioP1;P1;durP2;ratioP2;P2;SDS_P1;SDS_P2;PMS_P1;PMS_P2;Temp;Humidity;BMP_temperature;BMP_pressure;BME280_temperature;BME280_humidity;BME280_pressure;Samples;Min_cycle;Max_cycle;Signal;HPM_P1;HPM_P2
2024/01/10 00:01:59;;;;;;;13.30;7.05;;;;;;;;;;8218726;28;20321;-60
2024/01/10 00:05:59;;;;;;;15.00;7.13;;;;;;;;;;8214482;28;20216;-60
2024/01/10 00:10:01;;;;;;;16.42;7.45;;;;;;;;;;8216833;28;20041;-59
2024/01/10 00:14:03;;;;;;;17.40;7.85;;;;;;;;;;8218186;28;20715;-59
2024/01/10 00:18:03;;;;;;;13.30;6.72;;;;;;;;;;8223731;28;20358;-62
2024/01/10 00:22:03;;;;;;;15.18;6.20;;;;;;;;;;8215171;28;20808;-59
2024/01/10 00:26:03;;;;;;;14.75;7.05;;;;;;;;;;8215110;28;20281;-59
2024/01/10 00:30:05;;;;;;;16.42;6.85;;;;;;;;;;8210329;28;20030;-60
2024/01/10 00:34:05;;;;;;;13.70;6.88;;;;;;;;;;8211816;28;20269;-59
2024/01/10 00:38:05;;;;;;;16.10;7.60;;;;;;;;;;8210669;28;20076;-59
2024/01/10 00:42:05;;;;;;;16.98;7.15;;;;;;;;;;8209912;28;20472;-59
2024/01/10 00:46:06;;;;;;;15.32;7.60;;;;;;;;;;8218475;28;20046;-60
2024/01/10 00:50:06;;;;;;;16.90;7.13;;;;;;;;;;8210685;28;20141;-58
2024/01/10 00:54:06;;;;;;;14.07;7.68;;;;;;;;;;8212781;28;20034;-59
2024/01/10 00:58:06;;;;;;;15.45;7.88;;;;;;;;;;8215916;28;20033;-59
2024/01/10 01:02:07;;;;;;;12.55;6.75;;;;;;;;;;8214936;28;20034;-58
2024/01/10 01:06:07;;;;;;;14.55;7.82;;;;;;;;;;8216249;28;20798;-59
2024/01/10 01:10:08;;;;;;;19.03;8.67;;;;;;;;;;8213613;28;20290;-58
2024/01/10 01:14:08;;;;;;;16.48;7.35;;;;;;;;;;8216981;28;20280;-59
2024/01/10 01:18:09;;;;;;;12.52;6.80;;;;;;;;;;8212803;28;20123;-59
2024/01/10 01:22:10;;;;;;;16.42;8.50;;;;;;;;;;8219057;28;20513;-59
2024/01/10 01:26:10;;;;;;;16.27;8.23;;;;;;;;;;8215212;28;20030;-60
2024/01/10 01:30:11;;;;;;;16.40;8.38;;;;;;;;;;8212860;28;20530;-60
2024/01/10 01:34:12;;;;;;;13.60;7.18;;;;;;;;;;8212754;28;20140;-59
2024/01/10 01:38:12;;;;;;;16.92;8.43;;;;;;;;;;8215238;28;20113;-59
2024/01/10 01:42:12;;;;;;;17.25;8.57;;;;;;;;;;8212218;28;20539;-59
2024/01/10 01:46:12;;;;;;;16.30;8.02;;;;;;;;;;8213751;28;20421;-59
2024/01/10 01:50:12;;;;;;;15.15;7.30;;;;;;;;;;8208997;28;20121;-63
2024/01/10 01:54:14;;;;;;;12.73;6.37;;;;;;;;;;8212572;28;20377;-58
2024/01/10 01:58:15;;;;;;;12.07;7.15;;;;;;;;;;8220022;28;20794;-58
2024/01/10 02:02:16;;;;;;;14.68;7.43;;;;;;;;;;8222503;28;20144;-58
2024/01/10 02:06:16;;;;;;;13.63;7.18;;;;;;;;;;8211405;28;20224;-57
2024/01/10 02:10:16;;;;;;;14.30;7.55;;;;;;;;;;8216647;28;20109;-59
2024/01/10 02:14:17;;;;;;;18.63;8.90;;;;;;;;;;8217522;28;20022;-58
2024/01/10 02:18:17;;;;;;;13.15;7.30;;;;;;;;;;8211686;28;20090;-59
2024/01/10 02:22:18;;;;;;;12.68;7.35;;;;;;;;;;8215394;28;20061;-58
2024/01/10 02:26:18;;;;;;;14.93;7.80;;;;;;;;;;8215703;28;20030;-58
2024/01/10 02:30:18;;;;;;;14.27;7.28;;;;;;;;;;8209787;28;20395;-59
2024/01/10 02:34:18;;;;;;;14.52;7.68;;;;;;;;;;8215207;28;20081;-60
2024/01/10 02:38:21;;;;;;;12.70;7.30;;;;;;;;;;8210711;28;20108;-60
2024/01/10 02:42:21;;;;;;;13.77;7.30;;;;;;;;;;8212507;28;20520;-60
2024/01/10 02:46:22;;;;;;;12.20;6.90;;;;;;;;;;8211644;28;20152;-61
2024/01/10 02:50:22;;;;;;;16.05;8.20;;;;;;;;;;8207045;28;20041;-60
2024/01/10 02:54:22;;;;;;;14.63;7.72;;;;;;;;;;8213708;28;20026;-59
2024/01/10 02:58:25;;;;;;;13.65;7.65;;;;;;;;;;8207682;28;20030;-60
2024/01/10 03:02:26;;;;;;;12.32;7.13;;;;;;;;;;8209774;28;20041;-59
2024/01/10 03:06:26;;;;;;;14.88;7.13;;;;;;;;;;8211032;28;20026;-59
2024/01/10 03:10:26;;;;;;;14.15;7.32;;;;;;;;;;8217747;28;21311;-60
2024/01/10 03:14:27;;;;;;;14.40;7.57;;;;;;;;;;8222309;28;20022;-60
2024/01/10 03:18:27;;;;;;;18.05;9.23;;;;;;;;;;8221881;28;20038;-61
2024/01/10 03:22:27;;;;;;;16.42;9.02;;;;;;;;;;8216648;28;20026;-59
2024/01/10 03:26:27;;;;;;;18.50;8.75;;;;;;;;;;8213459;28;20025;-59
2024/01/10 03:30:28;;;;;;;17.98;8.63;;;;;;;;;;8210576;28;20461;-58
2024/01/10 03:34:28;;;;;;;13.35;7.57;;;;;;;;;;8216530;28;20152;-59
2024/01/10 03:38:28;;;;;;;16.65;8.05;;;;;;;;;;8209495;28;20026;-60
2024/01/10 03:42:28;;;;;;;16.50;8.90;;;;;;;;;;8216764;28;20017;-60
2024/01/10 03:46:29;;;;;;;17.08;8.07;;;;;;;;;;8215142;28;20034;-60
2024/01/10 03:50:29;;;;;;;16.25;8.10;;;;;;;;;;8208971;28;20324;-59
2024/01/10 03:54:29;;;;;;;18.50;8.95;;;;;;;;;;8215752;28;20737;-59
2024/01/10 03:58:29;;;;;;;17.70;9.50;;;;;;;;;;8217106;28;20033;-59
2024/01/10 04:02:29;;;;;;;17.30;9.25;;;;;;;;;;8212089;28;20324;-60
2024/01/10 04:06:29;;;;;;;20.10;10.20;;;;;;;;;;8217848;28;20446;-60
2024/01/10 04:10:30;;;;;;;21.30;10.60;;;;;;;;;;8214301;28;20267;-61
2024/01/10 04:14:30;;;;;;;19.52;9.23;;;;;;;;;;8225809;28;20022;-61
2024/01/10 04:18:30;;;;;;;20.63;9.18;;;;;;;;;;8225246;28;20045;-61
2024/01/10 04:22:31;;;;;;;23.17;10.38;;;;;;;;;;8219840;28;20022;-63
2024/01/10 04:26:32;;;;;;;21.65;10.57;;;;;;;;;;8212682;28;20260;-60
2024/01/10 04:30:32;;;;;;;19.23;9.88;;;;;;;;;;8212680;28;20038;-59
2024/01/10 04:34:32;;;;;;;19.92;10.13;;;;;;;;;;8215243;28;20506;-59
2024/01/10 04:38:32;;;;;;;18.27;9.80;;;;;;;;;;8216954;28;20077;-58
2024/01/10 04:42:33;;;;;;;22.63;10.85;;;;;;;;;;8216116;28;20752;-59
2024/01/10 04:46:33;;;;;;;18.75;9.95;;;;;;;;;;8219480;28;20765;-60
2024/01/10 04:50:34;;;;;;;20.83;10.55;;;;;;;;;;8213617;28;20087;-59
2024/01/10 04:54:34;;;;;;;28.42;9.70;;;;;;;;;;8215222;28;20042;-59
2024/01/10 04:58:36;;;;;;;19.02;10.27;;;;;;;;;;8218870;28;20057;-59
2024/01/10 05:02:36;;;;;;;21.65;10.18;;;;;;;;;;8211958;28;20194;-59
2024/01/10 05:06:37;;;;;;;17.92;9.07;;;;;;;;;;8215830;28;20145;-58
2024/01/10 05:10:38;;;;;;;16.67;9.48;;;;;;;;;;8216257;28;20370;-58
2024/01/10 05:14:38;;;;;;;19.80;8.95;;;;;;;;;;8215817;28;20506;-59
2024/01/10 05:18:38;;;;;;;18.33;10.05;;;;;;;;;;8215441;28;20290;-58
2024/01/10 05:22:39;;;;;;;21.30;11.23;;;;;;;;;;8214149;28;20029;-58
2024/01/10 05:26:40;;;;;;;16.42;8.98;;;;;;;;;;8217309;28;20064;-58
2024/01/10 05:30:41;;;;;;;20.83;11.07;;;;;;;;;;8215914;28;20065;-57
2024/01/10 05:34:41;;;;;;;19.02;9.65;;;;;;;;;;8215063;28;20183;-60
2024/01/10 05:38:41;;;;;;;18.17;8.82;;;;;;;;;;8216097;28;20025;-60
2024/01/10 05:42:41;;;;;;;17.02;8.82;;;;;;;;;;8221306;28;20022;-59
2024/01/10 05:46:42;;;;;;;18.25;9.45;;;;;;;;;;8228381;28;20045;-59
2024/01/10 05:50:42;;;;;;;19.15;9.70;;;;;;;;;;8228260;28;20065;-60
2024/01/10 05:54:42;;;;;;;19.92;9.90;;;;;;;;;;8228289;28;20022;-60
2024/01/10 05:58:42;;;;;;;18.73;9.48;;;;;;;;;;8228668;28;20034;-60
2024/01/10 06:02:43;;;;;;;18.05;9.38;;;;;;;;;;8226911;28;20073;-60
2024/01/10 06:06:45;;;;;;;14.27;8.07;;;;;;;;;;8225020;28;20065;-60
2024/01/10 06:10:45;;;;;;;16.88;9.63;;;;;;;;;;8225491;28;20379;-60
2024/01/10 06:14:46;;;;;;;17.95;9.57;;;;;;;;;;8226020;28;20039;-60
2024/01/10 06:18:46;;;;;;;17.23;9.88;;;;;;;;;;8223561;28;20573;-60
2024/01/10 06:22:47;;;;;;;21.92;11.95;;;;;;;;;;8225222;28;20026;-59
2024/01/10 06:26:47;;;;;;;21.67;10.57;;;;;;;;;;8225295;28;20085;-59
2024/01/10 06:30:47;;;;;;;19.05;9.52;;;;;;;;;;8222063;28;20778;-61
2024/01/10 06:34:47;;;;;;;18.90;9.90;;;;;;;;;;8228337;28;20431;-61
2024/01/10 06:38:47;;;;;;;18.15;9.90;;;;;;;;;;8231124;28;20136;-60
2024/01/10 06:42:47;;;;;;;21.23;10.13;;;;;;;;;;8223873;28;20028;-60
2024/01/10 06:46:47;;;;;;;18.55;9.98;;;;;;;;;;8222273;28;20132;-60
2024/01/10 06:50:48;;;;;;;21.80;10.02;;;;;;;;;;8211434;28;20033;-62
2024/01/10 06:54:48;;;;;;;19.38;10.90;;;;;;;;;;8212730;28;20053;-59
2024/01/10 06:58:48;;;;;;;18.80;9.48;;;;;;;;;;8222053;28;20476;-59
2024/01/10 07:02:49;;;;;;;18.02;9.75;;;;;;;;;;8217060;28;20066;-59
2024/01/10 07:06:49;;;;;;;17.45;9.05;;;;;;;;;;8215285;28;21334;-59
2024/01/10 07:10:49;;;;;;;20.75;10.23;;;;;;;;;;8214264;28;21075;-60
2024/01/10 07:14:50;;;;;;;18.67;9.50;;;;;;;;;;8216965;28;21095;-60
2024/01/10 07:18:51;;;;;;;22.92;10.40;;;;;;;;;;8213233;28;21367;-60
2024/01/10 07:22:51;;;;;;;22.90;10.90;;;;;;;;;;8216888;28;22767;-59
2024/01/10 07:26:51;;;;;;;14.52;8.50;;;;;;;;;;8215621;28;20356;-59
2024/01/10 07:30:51;;;;;;;17.10;9.05;;;;;;;;;;8215416;28;21913;-58
2024/01/10 07:34:51;;;;;;;19.42;10.27;;;;;;;;;;8222423;28;21077;-60
2024/01/10 07:38:57;;;;;;;21.73;10.05;;;;;;;;;;8212785;28;20219;-59
2024/01/10 07:42:58;;;;;;;19.90;10.32;;;;;;;;;;8214560;28;20056;-59
2024/01/10 07:46:58;;;;;;;17.77;10.15;;;;;;;;;;8213770;28;20486;-60
2024/01/10 07:50:58;;;;;;;17.60;9.43;;;;;;;;;;8220117;28;20032;-60
2024/01/10 07:54:58;;;;;;;17.58;10.15;;;;;;;;;;8222980;28;20060;-60
2024/01/10 07:58:59;;;;;;;18.23;9.48;;;;;;;;;;8221555;28;20130;-60
2024/01/10 08:02:59;;;;;;;28.40;10.98;;;;;;;;;;8221826;28;20041;-58
2024/01/10 08:07:00;;;;;;;20.23;10.50;;;;;;;;;;8225276;28;20018;-58
2024/01/10 08:11:00;;;;;;;19.15;9.85;;;;;;;;;;8220890;28;20776;-59
2024/01/10 08:15:01;;;;;;;21.23;10.32;;;;;;;;;;8221638;28;20019;-58
2024/01/10 08:19:01;;;;;;;19.25;10.23;;;;;;;;;;8220689;28;20046;-58
2024/01/10 08:23:02;;;;;;;21.33;10.55;;;;;;;;;;8223275;28;20278;-58
2024/01/10 08:27:03;;;;;;;22.88;11.75;;;;;;;;;;8224675;28;20032;-58
2024/01/10 08:31:03;;;;;;;21.65;11.10;;;;;;;;;;8217132;28;20050;-58
2024/01/10 08:35:10;;;;;;;20.33;10.57;;;;;;;;;;8220843;28;20487;-58
2024/01/10 08:39:11;;;;;;;18.88;10.13;;;;;;;;;;8221719;28;20372;-58
2024/01/10 08:43:11;;;;;;;19.90;9.65;;;;;;;;;;8221854;28;20461;-58
2024/01/10 08:47:11;;;;;;;19.60;9.48;;;;;;;;;;8218486;28;20564;-58
2024/01/10 08:51:12;;;;;;;24.23;11.02;;;;;;;;;;8215569;28;20414;-59
2024/01/10 08:55:12;;;;;;;17.98;10.20;;;;;;;;;;8222402;28;20136;-59
2024/01/10 08:59:13;;;;;;;21.00;9.80;;;;;;;;;;8220207;28;20081;-59
2024/01/10 09:03:13;;;;;;;19.95;10.15;;;;;;;;;;8217838;28;20046;-60
2024/01/10 09:07:13;;;;;;;23.85;11.40;;;;;;;;;;8219410;28;20146;-60
2024/01/10 09:11:13;;;;;;;19.35;9.35;;;;;;;;;;8216775;28;20092;-60
2024/01/10 09:15:14;;;;;;;20.05;9.52;;;;;;;;;;8218748;28;20848;-58
2024/01/10 09:19:14;;;;;;;23.05;9.88;;;;;;;;;;8217522;28;20231;-59
2024/01/10 09:23:15;;;;;;;21.05;10.23;;;;;;;;;;8218882;28;20030;-60
2024/01/10 09:27:15;;;;;;;23.30;11.15;;;;;;;;;;8218742;28;20323;-60
2024/01/10 09:31:15;;;;;;;21.27;10.98;;;;;;;;;;8216873;28;20632;-59
2024/01/10 09:35:16;;;;;;;22.63;11.07;;;;;;;;;;8217515;28;20026;-60
2024/01/10 09:39:16;;;;;;;19.97;10.07;;;;;;;;;;8218771;28;20030;-60
2024/01/10 09:43:17;;;;;;;19.00;9.93;;;;;;;;;;8220727;28;20865;-59
2024/01/10 09:47:17;;;;;;;21.65;11.02;;;;;;;;;;8222936;28;20388;-59
2024/01/10 09:51:18;;;;;;;17.48;10.55;;;;;;;;;;8212203;28;20322;-59
2024/01/10 09:55:22;;;;;;;17.55;9.63;;;;;;;;;;8220366;28;20014;-59
2024/01/10 09:59:22;;;;;;;19.27;10.00;;;;;;;;;;8215685;28;20108;-60
2024/01/10 10:03:22;;;;;;;18.70;10.27;;;;;;;;;;8214366;28;20081;-59
2024/01/10 10:07:22;;;;;;;22.70;10.60;;;;;;;;;;8227765;28;20437;-60
2024/01/10 10:11:22;;;;;;;23.60;11.20;;;;;;;;;;8220267;28;20285;-59
2024/01/10 10:15:26;;;;;;;22.55;12.02;;;;;;;;;;8220940;28;20358;-57
2024/01/10 10:19:26;;;;;;;22.98;11.07;;;;;;;;;;8215852;28;20192;-59
2024/01/10 10:23:26;;;;;;;22.30;11.18;;;;;;;;;;8217765;28;20045;-57
2024/01/10 10:27:26;;;;;;;21.52;11.02;;;;;;;;;;8215637;28;20729;-59
2024/01/10 10:31:26;;;;;;;16.40;9.27;;;;;;;;;;8212201;28;20042;-58
2024/01/10 10:35:27;;;;;;;27.58;9.88;;;;;;;;;;8215050;28;20022;-59
2024/01/10 10:39:27;;;;;;;18.00;8.93;;;;;;;;;;8215711;28;20022;-58
2024/01/10 10:43:30;;;;;;;16.52;8.27;;;;;;;;;;8215781;28;20277;-59
2024/01/10 10:47:32;;;;;;;17.90;8.90;;;;;;;;;;8213684;28;20558;-59
2024/01/10 10:51:36;;;;;;;17.70;9.43;;;;;;;;;;8217074;28;20480;-58
2024/01/10 10:55:37;;;;;;;17.83;8.57;;;;;;;;;;8212011;28;20483;-58
2024/01/10 10:59:37;;;;;;;14.18;7.97;;;;;;;;;;8212892;28;20049;-58
2024/01/10 11:03:39;;;;;;;17.20;8.95;;;;;;;;;;8209635;28;20402;-58
2024/01/10 11:07:40;;;;;;;15.98;9.00;;;;;;;;;;8211511;28;20117;-59
2024/01/10 11:11:47;;;;;;;16.58;8.57;;;;;;;;;;8211970;28;20077;-59
2024/01/10 11:16:06;;;;;;;22.40;8.32;;;;;;;;;;8212363;28;20325;-60
2024/01/10 11:20:14;;;;;;;17.58;9.13;;;;;;;;;;8209585;28;20438;-59
2024/01/10 11:24:14;;;;;;;18.45;9.32;;;;;;;;;;8211942;28;20036;-59
2024/01/10 11:28:15;;;;;;;17.98;8.00;;;;;;;;;;8216797;28;20022;-60
2024/01/10 11:32:15;;;;;;;18.08;9.27;;;;;;;;;;8217812;28;20202;-60
2024/01/10 11:36:17;;;;;;;14.48;8.40;;;;;;;;;;8222137;28;20029;-59
2024/01/10 11:40:37;;;;;;;23.80;8.60;;;;;;;;;;8227702;28;20026;-59
2024/01/10 11:44:48;;;;;;;18.05;9.00;;;;;;;;;;8191436;28;1123030;-60
2024/01/10 11:48:48;;;;;;;20.30;8.77;;;;;;;;;;8227360;28;20039;-60
2024/01/10 11:52:52;;;;;;;15.63;7.97;;;;;;;;;;8230524;28;20030;-59
2024/01/10 11:56:53;;;;;;;17.35;9.27;;;;;;;;;;8236824;28;21350;-60
2024/01/10 12:00:54;;;;;;;16.08;8.32;;;;;;;;;;8232707;28;20038;-59
2024/01/10 12:04:54;;;;;;;19.80;9.27;;;;;;;;;;8232519;28;22311;-59
2024/01/10 12:08:54;;;;;;;19.27;8.85;;;;;;;;;;8230819;28;20280;-59
2024/01/10 12:12:55;;;;;;;20.17;9.05;;;;;;;;;;8233193;28;20026;-60
2024/01/10 12:16:55;;;;;;;16.07;8.97;;;;;;;;;;8221169;28;20064;-59
2024/01/10 12:20:56;;;;;;;16.20;8.85;;;;;;;;;;8215291;28;20320;-59
2024/01/10 12:24:56;;;;;;;15.68;8.70;;;;;;;;;;8219943;28;20852;-59
2024/01/10 12:28:57;;;;;;;17.60;8.27;;;;;;;;;;8217697;28;20026;-59
2024/01/10 12:33:01;;;;;;;15.95;9.35;;;;;;;;;;8217683;28;20174;-60
2024/01/10 12:37:01;;;;;;;14.95;8.45;;;;;;;;;;8216093;28;20075;-59
2024/01/10 12:41:01;;;;;;;16.35;9.10;;;;;;;;;;8220670;28;20138;-58
2024/01/10 12:45:04;;;;;;;18.95;9.80;;;;;;;;;;8220742;28;20034;-58
2024/01/10 12:49:05;;;;;;;15.07;8.38;;;;;;;;;;8219855;28;20295;-58
2024/01/10 12:53:05;;;;;;;16.70;8.32;;;;;;;;;;8214224;28;20018;-58
2024/01/10 12:57:06;;;;;;;15.65;8.73;;;;;;;;;;8216277;28;20080;-59
2024/01/10 13:01:10;;;;;;;17.38;9.05;;;;;;;;;;8216718;28;20317;-59
2024/01/10 13:05:10;;;;;;;17.65;9.70;;;;;;;;;;8217270;28;20026;-58
2024/01/10 13:09:10;;;;;;;16.20;8.40;;;;;;;;;;8218607;28;20085;-58
2024/01/10 13:13:11;;;;;;;16.10;8.38;;;;;;;;;;8212339;28;20026;-58
2024/01/10 13:17:11;;;;;;;17.40;8.93;;;;;;;;;;8212394;28;20031;-57
2024/01/10 13:21:11;;;;;;;16.55;8.77;;;;;;;;;;8216268;28;21580;-58
2024/01/10 13:25:12;;;;;;;17.40;9.68;;;;;;;;;;8216209;28;20026;-59
2024/01/10 13:29:13;;;;;;;16.95;9.00;;;;;;;;;;8216825;28;20551;-59
2024/01/10 13:33:14;;;;;;;20.40;9.85;;;;;;;;;;8218358;28;20037;-59
2024/01/10 13:37:14;;;;;;;16.40;9.68;;;;;;;;;;8216312;28;20647;-59
2024/01/10 13:41:14;;;;;;;20.27;10.23;;;;;;;;;;8216851;28;20022;-59
2024/01/10 13:45:14;;;;;;;18.13;9.70;;;;;;;;;;8216844;28;20285;-59
2024/01/10 13:49:14;;;;;;;16.40;8.63;;;;;;;;;;8230987;28;20359;-59
2024/01/10 13:53:15;;;;;;;19.98;9.73;;;;;;;;;;8229091;28;20034;-61
2024/01/10 13:57:15;;;;;;;18.42;9.23;;;;;;;;;;8229608;28;20120;-60
2024/01/10 14:01:15;;;;;;;19.58;9.68;;;;;;;;;;8230216;28;20038;-60
2024/01/10 14:05:15;;;;;;;18.23;8.73;;;;;;;;;;8230933;28;20132;-62
2024/01/10 14:09:17;;;;;;;14.95;8.82;;;;;;;;;;8229517;28;20316;-60
2024/01/10 14:13:18;;;;;;;17.02;8.80;;;;;;;;;;8231589;28;20132;-58
2024/01/10 14:17:18;;;;;;;14.88;8.77;;;;;;;;;;8228350;28;20120;-59
2024/01/10 14:21:19;;;;;;;17.73;9.00;;;;;;;;;;8229776;28;20034;-64
2024/01/10 14:25:20;;;;;;;19.38;8.90;;;;;;;;;;8229016;28;20026;-60
2024/01/10 14:29:22;;;;;;;17.40;9.10;;;;;;;;;;8229464;28;20026;-58
2024/01/10 14:33:22;;;;;;;23.38;10.70;;;;;;;;;;8229574;28;20041;-59
2024/01/10 14:37:22;;;;;;;15.70;8.73;;;;;;;;;;8222096;28;20029;-60
2024/01/10 14:41:22;;;;;;;16.65;8.23;;;;;;;;;;8221214;28;20120;-60
2024/01/10 14:45:23;;;;;;;18.83;9.55;;;;;;;;;;8219077;28;20042;-59
2024/01/10 14:49:23;;;;;;;15.02;8.93;;;;;;;;;;8218318;28;20033;-57
2024/01/10 14:53:24;;;;;;;14.53;8.63;;;;;;;;;;8220734;28;20104;-59
2024/01/10 14:57:24;;;;;;;18.08;8.57;;;;;;;;;;8209498;28;20277;-58
2024/01/10 15:01:24;;;;;;;18.67;9.50;;;;;;;;;;8207064;28;20035;-58
2024/01/10 15:05:26;;;;;;;15.68;8.00;;;;;;;;;;8205497;28;20415;-58
2024/01/10 15:09:26;;;;;;;14.60;8.75;;;;;;;;;;8207512;28;20362;-59
2024/01/10 15:13:26;;;;;;;16.40;8.98;;;;;;;;;;8207767;28;20085;-59
2024/01/10 15:17:27;;;;;;;13.73;8.30;;;;;;;;;;8210362;28;20030;-59
2024/01/10 15:21:27;;;;;;;19.73;8.82;;;;;;;;;;8201989;28;20506;-59
2024/01/10 15:25:27;;;;;;;15.02;8.30;;;;;;;;;;8209257;28;20034;-59
2024/01/10 15:29:28;;;;;;;18.77;8.82;;;;;;;;;;8206044;28;20601;-59
2024/01/10 15:33:28;;;;;;;17.45;9.07;;;;;;;;;;8207283;28;20104;-59
2024/01/10 15:37:29;;;;;;;14.88;8.45;;;;;;;;;;8210505;28;20054;-59
2024/01/10 15:41:29;;;;;;;19.33;9.02;;;;;;;;;;8209131;28;20060;-59
2024/01/10 15:45:31;;;;;;;16.60;8.98;;;;;;;;;;8220252;28;20042;-59
2024/01/10 15:49:31;;;;;;;15.55;8.93;;;;;;;;;;8223678;28;20068;-59
2024/01/10 15:53:31;;;;;;;18.10;9.10;;;;;;;;;;8220489;28;20030;-59
2024/01/10 15:57:32;;;;;;;16.05;8.25;;;;;;;;;;8221935;28;20022;-59
2024/01/10 16:01:32;;;;;;;15.32;8.35;;;;;;;;;;8213458;28;20281;-59
2024/01/10 16:05:32;;;;;;;15.32;8.43;;;;;;;;;;8217449;28;20436;-60
2024/01/10 16:09:32;;;;;;;15.13;7.97;;;;;;;;;;8214522;28;20030;-59
2024/01/10 16:13:32;;;;;;;16.50;8.35;;;;;;;;;;8216273;28;20548;-59
2024/01/10 16:17:33;;;;;;;21.05;8.85;;;;;;;;;;8226246;28;20042;-60
2024/01/10 16:21:33;;;;;;;17.75;9.60;;;;;;;;;;8231183;28;20030;-60
2024/01/10 16:25:33;;;;;;;17.50;9.10;;;;;;;;;;8234084;28;20620;-60
2024/01/10 16:29:34;;;;;;;18.80;8.90;;;;;;;;;;8227089;28;20289;-61
2024/01/10 16:33:34;;;;;;;16.88;8.82;;;;;;;;;;8233501;28;20038;-61
2024/01/10 16:37:34;;;;;;;17.20;8.95;;;;;;;;;;8224734;28;20287;-60
2024/01/10 16:41:34;;;;;;;18.05;8.55;;;;;;;;;;8225652;28;20034;-60
2024/01/10 16:45:35;;;;;;;15.80;8.93;;;;;;;;;;8227382;28;20046;-60
2024/01/10 16:49:35;;;;;;;20.17;9.23;;;;;;;;;;8229061;28;20058;-60
2024/01/10 16:53:36;;;;;;;19.38;8.73;;;;;;;;;;8228436;28;20026;-60
2024/01/10 16:57:36;;;;;;;16.80;8.85;;;;;;;;;;8229354;28;20030;-60
2024/01/10 17:01:36;;;;;;;17.52;8.40;;;;;;;;;;8225038;28;20483;-60
2024/01/10 17:05:36;;;;;;;14.93;8.13;;;;;;;;;;8225488;28;20329;-59
2024/01/10 17:09:39;;;;;;;17.63;9.80;;;;;;;;;;8217334;28;20172;-59
2024/01/10 17:13:41;;;;;;;18.35;8.85;;;;;;;;;;8216906;28;20572;-59
2024/01/10 17:17:41;;;;;;;17.83;9.40;;;;;;;;;;8215494;28;20156;-59
2024/01/10 17:21:41;;;;;;;16.85;8.20;;;;;;;;;;8215538;28;20526;-59
2024/01/10 17:25:42;;;;;;;16.50;8.75;;;;;;;;;;8218286;28;20564;-60
2024/01/10 17:29:43;;;;;;;14.13;8.73;;;;;;;;;;8221413;28;20251;-59
2024/01/10 17:33:43;;;;;;;15.48;8.18;;;;;;;;;;8203003;28;20041;-59
2024/01/10 17:37:44;;;;;;;16.27;9.10;;;;;;;;;;8209330;28;20101;-59
2024/01/10 17:41:44;;;;;;;15.07;8.07;;;;;;;;;;8211631;28;20026;-59
2024/01/10 17:45:45;;;;;;;18.65;9.00;;;;;;;;;;8207473;28;20489;-57
2024/01/10 17:49:45;;;;;;;17.58;8.63;;;;;;;;;;8208702;28;20124;-59
2024/01/10 17:53:45;;;;;;;17.58;9.25;;;;;;;;;;8205109;28;20446;-59
2024/01/10 17:57:46;;;;;;;20.48;9.30;;;;;;;;;;8202734;28;20030;-59
2024/01/10 18:01:46;;;;;;;20.17;9.85;;;;;;;;;;8197926;28;20038;-59
2024/01/10 18:05:46;;;;;;;16.25;9.15;;;;;;;;;;8202530;28;20023;-58
2024/01/10 18:09:46;;;;;;;18.05;8.88;;;;;;;;;;8206896;28;20381;-59
2024/01/10 18:13:46;;;;;;;21.00;10.07;;;;;;;;;;8212742;28;20319;-59
2024/01/10 18:17:47;;;;;;;19.80;9.77;;;;;;;;;;8214230;28;20273;-59
2024/01/10 18:21:47;;;;;;;18.25;9.35;;;;;;;;;;8219429;28;20026;-60
2024/01/10 18:25:48;;;;;;;19.25;9.30;;;;;;;;;;8211558;28;20137;-59
2024/01/10 18:29:48;;;;;;;16.73;9.30;;;;;;;;;;8198841;28;20022;-59
2024/01/10 18:33:48;;;;;;;19.10;9.43;;;;;;;;;;8205939;28;20104;-60
2024/01/10 18:37:48;;;;;;;16.45;9.25;;;;;;;;;;8203313;28;20014;-59
2024/01/10 18:41:49;;;;;;;18.00;9.57;;;;;;;;;;8205551;28;21558;-58
2024/01/10 18:45:49;;;;;;;18.20;9.43;;;;;;;;;;8204253;28;20365;-58
2024/01/10 18:49:49;;;;;;;14.77;8.52;;;;;;;;;;8203561;28;20026;-58
2024/01/10 18:53:50;;;;;;;19.13;10.15;;;;;;;;;;8206760;28;20458;-59
2024/01/10 18:57:52;;;;;;;17.92;9.85;;;;;;;;;;8200455;28;21257;-59
2024/01/10 19:01:52;;;;;;;20.58;10.18;;;;;;;;;;8206633;28;20395;-60
2024/01/10 19:05:52;;;;;;;18.45;8.98;;;;;;;;;;8202583;28;21430;-59
2024/01/10 19:09:53;;;;;;;16.05;8.85;;;;;;;;;;8191272;28;22616;-59
2024/01/10 19:13:53;;;;;;;19.48;10.05;;;;;;;;;;8195709;28;20136;-58
2024/01/10 19:17:53;;;;;;;19.20;9.60;;;;;;;;;;8196837;28;20598;-60
2024/01/10 19:21:53;;;;;;;18.73;9.85;;;;;;;;;;8200374;28;22739;-60
2024/01/10 19:25:55;;;;;;;18.52;9.57;;;;;;;;;;8200255;28;20065;-59
2024/01/10 19:29:56;;;;;;;17.35;9.80;;;;;;;;;;8198828;28;20628;-59
2024/01/10 19:33:56;;;;;;;20.43;9.60;;;;;;;;;;8199092;28;20030;-59
2024/01/10 19:37:56;;;;;;;19.63;10.02;;;;;;;;;;8202034;28;20376;-58
2024/01/10 19:41:56;;;;;;;26.93;13.77;;;;;;;;;;8197619;28;20061;-58
2024/01/10 19:45:57;;;;;;;24.13;12.68;;;;;;;;;;8203451;28;20873;-59
2024/01/10 19:49:57;;;;;;;19.38;11.35;;;;;;;;;;8209752;28;20022;-59
2024/01/10 19:53:57;;;;;;;21.42;10.68;;;;;;;;;;8205955;28;20262;-59
2024/01/10 19:57:57;;;;;;;19.70;10.13;;;;;;;;;;8206613;28;20029;-58
2024/01/10 20:01:58;;;;;;;21.27;11.48;;;;;;;;;;8209703;28;20033;-59
2024/01/10 20:05:58;;;;;;;20.83;10.48;;;;;;;;;;8210036;28;20045;-58
2024/01/10 20:09:58;;;;;;;17.15;9.40;;;;;;;;;;8208842;28;20719;-59
2024/01/10 20:13:58;;;;;;;19.10;10.15;;;;;;;;;;8208450;28;20902;-58
2024/01/10 20:17:59;;;;;;;21.27;11.07;;;;;;;;;;8209452;28;20039;-59
2024/01/10 20:21:59;;;;;;;17.48;9.13;;;;;;;;;;8212533;28;20114;-59
2024/01/10 20:25:59;;;;;;;18.23;9.48;;;;;;;;;;8212479;28;20057;-58
2024/01/10 20:29:59;;;;;;;21.80;10.32;;;;;;;;;;8205870;28;20324;-59
2024/01/10 20:33:59;;;;;;;26.10;11.15;;;;;;;;;;8207784;28;20541;-59
2024/01/10 20:38:00;;;;;;;16.50;10.00;;;;;;;;;;8209583;28;20469;-58
2024/01/10 20:42:00;;;;;;;21.75;10.55;;;;;;;;;;8206531;28;20224;-59
2024/01/10 20:46:00;;;;;;;21.92;10.30;;;;;;;;;;8210140;28;20058;-59
2024/01/10 20:50:01;;;;;;;18.98;9.57;;;;;;;;;;8210337;28;20438;-59
2024/01/10 20:54:01;;;;;;;18.23;10.25;;;;;;;;;;8214167;28;20069;-59
2024/01/10 20:58:01;;;;;;;18.27;9.38;;;;;;;;;;8211952;28;20661;-60
2024/01/10 21:02:01;;;;;;;23.42;11.15;;;;;;;;;;8205868;28;20199;-60
2024/01/10 21:06:01;;;;;;;22.23;10.80;;;;;;;;;;8208268;28;20611;-59
2024/01/10 21:10:02;;;;;;;24.83;10.70;;;;;;;;;;8204099;28;20391;-59
2024/01/10 21:14:03;;;;;;;21.65;10.55;;;;;;;;;;8212184;28;20023;-63
2024/01/10 21:18:04;;;;;;;23.98;11.40;;;;;;;;;;8212243;28;20462;-59
2024/01/10 21:22:04;;;;;;;20.15;10.85;;;;;;;;;;8221146;28;20049;-59
2024/01/10 21:26:04;;;;;;;23.35;11.18;;;;;;;;;;8226387;28;20290;-59
2024/01/10 21:30:05;;;;;;;29.15;12.13;;;;;;;;;;8219987;28;20541;-59
2024/01/10 21:34:05;;;;;;;25.30;11.40;;;;;;;;;;8215840;28;20034;-59
2024/01/10 21:38:05;;;;;;;22.63;11.63;;;;;;;;;;8217946;28;20026;-57
2024/01/10 21:42:06;;;;;;;28.85;12.63;;;;;;;;;;8221920;28;20317;-59
2024/01/10 21:46:06;;;;;;;26.05;12.68;;;;;;;;;;8218000;28;20281;-59
2024/01/10 21:50:09;;;;;;;23.60;11.45;;;;;;;;;;8220627;28;20029;-59
2024/01/10 21:54:09;;;;;;;20.73;11.30;;;;;;;;;;8218706;28;20025;-59
2024/01/10 21:58:12;;;;;;;27.90;12.18;;;;;;;;;;8218823;28;20029;-59
2024/01/10 22:02:12;;;;;;;26.70;11.07;;;;;;;;;;8222158;28;20312;-59
2024/01/10 22:06:13;;;;;;;23.30;11.38;;;;;;;;;;8222491;28;20088;-59
2024/01/10 22:10:14;;;;;;;25.95;12.07;;;;;;;;;;8229464;28;20026;-60
2024/01/10 22:14:14;;;;;;;23.38;11.52;;;;;;;;;;8231813;28;20057;-60
2024/01/10 22:18:14;;;;;;;23.70;11.10;;;;;;;;;;8233764;28;20093;-60
2024/01/10 22:22:15;;;;;;;23.20;12.02;;;;;;;;;;8231583;28;20041;-60
2024/01/10 22:26:15;;;;;;;21.80;11.32;;;;;;;;;;8222863;28;20465;-59
2024/01/10 22:30:15;;;;;;;25.77;12.65;;;;;;;;;;8224520;28;20034;-60
2024/01/10 22:34:16;;;;;;;25.25;12.30;;;;;;;;;;8222928;28;20026;-63
2024/01/10 22:38:16;;;;;;;24.10;12.00;;;;;;;;;;8226733;28;20022;-60
2024/01/10 22:42:17;;;;;;;21.60;11.97;;;;;;;;;;8231634;28;20833;-60
2024/01/10 22:46:17;;;;;;;27.17;12.55;;;;;;;;;;8228449;28;20927;-60
2024/01/10 22:50:18;;;;;;;23.58;12.05;;;;;;;;;;8216154;28;20029;-60
2024/01/10 22:54:18;;;;;;;25.98;13.10;;;;;;;;;;8221040;28;20053;-60
2024/01/10 22:58:18;;;;;;;24.15;12.40;;;;;;;;;;8214681;28;20061;-60
2024/01/10 23:02:18;;;;;;;22.77;11.70;;;;;;;;;;8213855;28;20280;-60
2024/01/10 23:06:18;;;;;;;22.97;11.73;;;;;;;;;;8213369;28;20033;-60
2024/01/10 23:10:19;;;;;;;22.05;11.30;;;;;;;;;;8215876;28;20281;-60
2024/01/10 23:14:19;;;;;;;29.00;12.68;;;;;;;;;;8216020;28;20058;-60
2024/01/10 23:18:19;;;;;;;21.60;11.65;;;;;;;;;;8214700;28;20116;-60
2024/01/10 23:22:19;;;;;;;21.63;10.68;;;;;;;;;;8219333;28;20292;-60
2024/01/10 23:26:20;;;;;;;21.73;11.55;;;;;;;;;;8221305;28;20542;-59
2024/01/10 23:30:20;;;;;;;26.37;12.73;;;;;;;;;;8228595;28;20037;-59
2024/01/10 23:34:20;;;;;;;23.27;11.93;;;;;;;;;;8228419;28;20253;-59